Bryan, Texas
Current Conditions -  °F | °C
As of 7:35 AM on Tuesday 21 Oct 2014 (Local Time) from KCFD Reporting Station
Haze Haze  
Wind Chill: 55°   Ceiling: Unl
Heat Index: 55°   Visibility: 3mi
Dew Point: 54°   Wind: 3mph
Humidity: 98%   Direction: 20°NNE
Pressure: 30.08"   Gusts: NA
Location:  30.67°N, 96.37°W
Report Text: KCFD 211235Z AUTO 02003KT 3SM BR CLR 13/12 A3008 RMK AO2 T01270124
Loading
Personal Weather Stations






























Interactive Weather Map
Tropical Storm Tracking
New forecast layout! Learn more

10-Day Weather Forecast

Advertisements
Track Severe Weather on mobile